Ana Sayfa
METAR-TAF:

METAR-TAF

Havaalanları :

Kastamonu Havalimanı

Kastamonu, Türkiye

Enlem: 41-19-01N, Boylam: 33-47-46E, yükseklik: 1073 m

Güncel hava durumu gözlemi

Rapor saat 12:50 UTC de 20 saat ve 16 dakika önce yapıldı.
Rüzgar kuzey/kuzeydoğudan 6 kt
Sıcaklık 16°C
Nem 36%
Basınç 1009 hPa
Görüş mesafesi 10 km veya daha fazla
3000 ft yükseklikte parçalı bulutlu

METAR: LTAL 271250Z 03006KT 9999 SCT030 16/01 Q1009

Saat: 12:06 (09:06 UTC)

Tahmin

Rapor saat 07:40 UTC de 1 saat ve 26 dakika önce yapıldı.
Ayın 28'si saat 09 UTC'den ayın 28'si saat 18 UTC'ye kadar geçerli Tahmin
Rüzgar değişken yönden 2 kt
Görüş mesafesi: 8000 m
1000 ft yükseklikte parçalı bulutlu
2500 ft yükseklikte parçalı çok bulutlu
7000 ft yükseklikte çok bulutlu
Dönüşüyor
ayın 28'si saat 10 UTC'den ayın 28'si saat 12 UTC'ye kadar
hafif yağmur

TAF: LTAL 280740Z 2809/2818 VRB02KT 8000 SCT010 BKN025 OVC070 BECMG 2810/2812 -RA

4.000'den fazla havaalanı için hava durumu gözlemleri ve tahminleri (METAR ve TAF raporları).

Kullanılabilir istasyonlar harita üzerinde sarı ve kırmızı noktalarla gösterilir.

İstasyonun adını görmek için fareyi noktanın üzerinde gezdirin.

Sonrasında hava gözlem ve tahminlerini görmek için tıklayın.

Haritayı değiştirmek için: yaklaştırmak için siyah artı işaretli yeşil düğmeye ve uzaklaştırmak için de eksi işaretli düğmeye hızla tıklayın; bitişik haritalar için yeşil okları kullanın.


METAR-TAF: